sensor_id;sensor_type;location;lat;lon;timestamp;P1;durP1;ratioP1;P2;durP2;ratioP2
49900;SDS011;35789;48.414;12.768;2023-07-08T00:00:00;9.0;;;3.1;;
49900;SDS011;35789;48.414;12.768;2023-07-08T00:05:00;9.0;;;3.1;;
49900;SDS011;35789;48.414;12.768;2023-07-08T00:10:00;9.0;;;3.1;;
49900;SDS011;35789;48.414;12.768;2023-07-08T00:15:00;9.0;;;3.1;;
49900;SDS011;35789;48.414;12.768;2023-07-08T00:20:00;7.2;;;3.2;;
49900;SDS011;35789;48.414;12.768;2023-07-08T00:25:00;7.2;;;3.2;;
49900;SDS011;35789;48.414;12.768;2023-07-08T00:30:00;7.2;;;3.2;;
49900;SDS011;35789;48.414;12.768;2023-07-08T00:35:00;7.2;;;3.2;;
49900;SDS011;35789;48.414;12.768;2023-07-08T00:40:00;7.2;;;3.2;;
49900;SDS011;35789;48.414;12.768;2023-07-08T00:45:01;7.2;;;3.2;;
49900;SDS011;35789;48.414;12.768;2023-07-08T00:50:02;8.3;;;3.8;;
49900;SDS011;35789;48.414;12.768;2023-07-08T00:55:04;8.3;;;3.8;;
49900;SDS011;35789;48.414;12.768;2023-07-08T01:00:03;8.3;;;3.8;;
49900;SDS011;35789;48.414;12.768;2023-07-08T01:05:04;8.3;;;3.8;;
49900;SDS011;35789;48.414;12.768;2023-07-08T01:10:02;8.3;;;3.8;;
49900;SDS011;35789;48.414;12.768;2023-07-08T01:15:02;8.3;;;3.8;;
49900;SDS011;35789;48.414;12.768;2023-07-08T01:20:03;6.9;;;3.5;;
49900;SDS011;35789;48.414;12.768;2023-07-08T01:25:01;6.9;;;3.5;;
49900;SDS011;35789;48.414;12.768;2023-07-08T01:30:01;6.9;;;3.5;;
49900;SDS011;35789;48.414;12.768;2023-07-08T01:35:01;6.9;;;3.5;;
49900;SDS011;35789;48.414;12.768;2023-07-08T01:40:15;6.9;;;3.5;;
49900;SDS011;35789;48.414;12.768;2023-07-08T01:45:00;6.9;;;3.5;;
49900;SDS011;35789;48.414;12.768;2023-07-08T01:50:01;7.4;;;3.4;;
49900;SDS011;35789;48.414;12.768;2023-07-08T01:55:00;7.4;;;3.4;;
49900;SDS011;35789;48.414;12.768;2023-07-08T02:00:00;7.4;;;3.4;;
49900;SDS011;35789;48.414;12.768;2023-07-08T02:05:00;7.4;;;3.4;;
49900;SDS011;35789;48.414;12.768;2023-07-08T02:10:00;7.4;;;3.4;;
49900;SDS011;35789;48.414;12.768;2023-07-08T02:15:00;7.4;;;3.4;;
49900;SDS011;35789;48.414;12.768;2023-07-08T02:20:00;7.0;;;3.3;;
49900;SDS011;35789;48.414;12.768;2023-07-08T02:25:00;7.0;;;3.3;;
49900;SDS011;35789;48.414;12.768;2023-07-08T02:30:00;7.0;;;3.3;;
49900;SDS011;35789;48.414;12.768;2023-07-08T02:35:00;7.0;;;3.3;;
49900;SDS011;35789;48.414;12.768;2023-07-08T02:40:00;7.0;;;3.3;;
49900;SDS011;35789;48.414;12.768;2023-07-08T02:45:00;7.0;;;3.3;;
49900;SDS011;35789;48.414;12.768;2023-07-08T02:50:00;8.0;;;3.9;;
49900;SDS011;35789;48.414;12.768;2023-07-08T02:55:00;8.0;;;3.9;;
49900;SDS011;35789;48.414;12.768;2023-07-08T03:00:00;8.0;;;3.9;;
49900;SDS011;35789;48.414;12.768;2023-07-08T03:05:00;8.0;;;3.9;;
49900;SDS011;35789;48.414;12.768;2023-07-08T03:10:00;8.0;;;3.9;;
49900;SDS011;35789;48.414;12.768;2023-07-08T03:15:00;8.0;;;3.9;;
49900;SDS011;35789;48.414;12.768;2023-07-08T03:20:00;6.4;;;3.6;;
49900;SDS011;35789;48.414;12.768;2023-07-08T03:25:00;6.4;;;3.6;;
49900;SDS011;35789;48.414;12.768;2023-07-08T03:30:00;6.4;;;3.6;;
49900;SDS011;35789;48.414;12.768;2023-07-08T03:35:00;6.4;;;3.6;;
49900;SDS011;35789;48.414;12.768;2023-07-08T03:40:00;6.4;;;3.6;;
49900;SDS011;35789;48.414;12.768;2023-07-08T03:45:00;6.4;;;3.6;;
49900;SDS011;35789;48.414;12.768;2023-07-08T03:50:00;8.5;;;3.6;;
49900;SDS011;35789;48.414;12.768;2023-07-08T03:55:00;8.5;;;3.6;;
49900;SDS011;35789;48.414;12.768;2023-07-08T04:00:00;8.5;;;3.6;;
49900;SDS011;35789;48.414;12.768;2023-07-08T04:05:00;8.5;;;3.6;;
49900;SDS011;35789;48.414;12.768;2023-07-08T04:10:00;8.5;;;3.6;;
49900;SDS011;35789;48.414;12.768;2023-07-08T04:15:00;8.5;;;3.6;;
49900;SDS011;35789;48.414;12.768;2023-07-08T04:20:00;6.7;;;3.1;;
49900;SDS011;35789;48.414;12.768;2023-07-08T04:25:00;6.7;;;3.1;;
49900;SDS011;35789;48.414;12.768;2023-07-08T04:30:00;6.7;;;3.1;;
49900;SDS011;35789;48.414;12.768;2023-07-08T04:35:00;6.7;;;3.1;;
49900;SDS011;35789;48.414;12.768;2023-07-08T04:40:00;6.7;;;3.1;;
49900;SDS011;35789;48.414;12.768;2023-07-08T04:45:00;8.0;;;3.3;;
49900;SDS011;35789;48.414;12.768;2023-07-08T04:50:00;8.0;;;3.3;;
49900;SDS011;35789;48.414;12.768;2023-07-08T04:55:00;8.0;;;3.3;;
49900;SDS011;35789;48.414;12.768;2023-07-08T05:00:00;8.0;;;3.3;;
49900;SDS011;35789;48.414;12.768;2023-07-08T05:05:00;8.0;;;3.3;;
49900;SDS011;35789;48.414;12.768;2023-07-08T05:10:00;8.0;;;3.3;;
49900;SDS011;35789;48.414;12.768;2023-07-08T05:15:00;6.1;;;3.3;;
49900;SDS011;35789;48.414;12.768;2023-07-08T05:20:00;6.1;;;3.3;;
49900;SDS011;35789;48.414;12.768;2023-07-08T05:25:00;6.1;;;3.3;;
49900;SDS011;35789;48.414;12.768;2023-07-08T05:30:00;6.1;;;3.3;;
49900;SDS011;35789;48.414;12.768;2023-07-08T05:35:00;6.1;;;3.3;;
49900;SDS011;35789;48.414;12.768;2023-07-08T05:40:00;6.1;;;3.3;;
49900;SDS011;35789;48.414;12.768;2023-07-08T05:45:00;6.9;;;2.8;;
49900;SDS011;35789;48.414;12.768;2023-07-08T05:50:00;6.9;;;2.8;;
49900;SDS011;35789;48.414;12.768;2023-07-08T05:55:00;6.9;;;2.8;;
49900;SDS011;35789;48.414;12.768;2023-07-08T06:00:00;6.9;;;2.8;;
49900;SDS011;35789;48.414;12.768;2023-07-08T06:05:00;6.9;;;2.8;;
49900;SDS011;35789;48.414;12.768;2023-07-08T06:10:00;6.9;;;2.8;;
49900;SDS011;35789;48.414;12.768;2023-07-08T06:15:00;5.9;;;3.3;;
49900;SDS011;35789;48.414;12.768;2023-07-08T06:20:00;5.9;;;3.3;;
49900;SDS011;35789;48.414;12.768;2023-07-08T06:25:00;5.9;;;3.3;;
49900;SDS011;35789;48.414;12.768;2023-07-08T06:30:00;5.9;;;3.3;;
49900;SDS011;35789;48.414;12.768;2023-07-08T06:35:00;5.9;;;3.3;;
49900;SDS011;35789;48.414;12.768;2023-07-08T06:40:00;5.9;;;3.3;;
49900;SDS011;35789;48.414;12.768;2023-07-08T06:45:00;6.7;;;2.9;;
49900;SDS011;35789;48.414;12.768;2023-07-08T06:50:00;6.7;;;2.9;;
49900;SDS011;35789;48.414;12.768;2023-07-08T06:55:00;6.7;;;2.9;;
49900;SDS011;35789;48.414;12.768;2023-07-08T07:00:00;6.7;;;2.9;;
49900;SDS011;35789;48.414;12.768;2023-07-08T07:05:00;6.7;;;2.9;;
49900;SDS011;35789;48.414;12.768;2023-07-08T07:10:00;6.7;;;2.9;;
49900;SDS011;35789;48.414;12.768;2023-07-08T07:15:00;6.9;;;3.3;;
49900;SDS011;35789;48.414;12.768;2023-07-08T07:20:00;6.9;;;3.3;;
49900;SDS011;35789;48.414;12.768;2023-07-08T07:25:00;6.9;;;3.3;;
49900;SDS011;35789;48.414;12.768;2023-07-08T07:30:00;6.9;;;3.3;;
49900;SDS011;35789;48.414;12.768;2023-07-08T07:35:00;6.9;;;3.3;;
49900;SDS011;35789;48.414;12.768;2023-07-08T07:40:00;6.9;;;3.3;;
49900;SDS011;35789;48.414;12.768;2023-07-08T07:45:00;5.8;;;3.1;;
49900;SDS011;35789;48.414;12.768;2023-07-08T07:50:00;5.8;;;3.1;;
49900;SDS011;35789;48.414;12.768;2023-07-08T07:55:01;5.8;;;3.1;;
49900;SDS011;35789;48.414;12.768;2023-07-08T08:00:00;5.8;;;3.1;;
49900;SDS011;35789;48.414;12.768;2023-07-08T08:05:00;5.8;;;3.1;;
49900;SDS011;35789;48.414;12.768;2023-07-08T08:10:00;5.8;;;3.1;;
49900;SDS011;35789;48.414;12.768;2023-07-08T08:15:00;7.6;;;4.1;;
49900;SDS011;35789;48.414;12.768;2023-07-08T08:20:00;7.6;;;4.1;;
49900;SDS011;35789;48.414;12.768;2023-07-08T08:25:00;7.6;;;4.1;;
49900;SDS011;35789;48.414;12.768;2023-07-08T08:30:00;7.6;;;4.1;;
49900;SDS011;35789;48.414;12.768;2023-07-08T08:35:00;7.6;;;4.1;;
49900;SDS011;35789;48.414;12.768;2023-07-08T08:40:00;7.6;;;4.1;;
49900;SDS011;35789;48.414;12.768;2023-07-08T08:45:02;20.2;;;4.3;;
49900;SDS011;35789;48.414;12.768;2023-07-08T08:50:03;20.2;;;4.3;;
49900;SDS011;35789;48.414;12.768;2023-07-08T08:55:00;20.2;;;4.3;;
49900;SDS011;35789;48.414;12.768;2023-07-08T09:00:01;20.2;;;4.3;;
49900;SDS011;35789;48.414;12.768;2023-07-08T09:05:04;20.2;;;4.3;;
49900;SDS011;35789;48.414;12.768;2023-07-08T09:10:04;20.2;;;4.3;;
49900;SDS011;35789;48.414;12.768;2023-07-08T09:15:10;7.5;;;3.8;;
49900;SDS011;35789;48.414;12.768;2023-07-08T09:20:08;7.5;;;3.8;;
49900;SDS011;35789;48.414;12.768;2023-07-08T09:25:08;7.5;;;3.8;;
49900;SDS011;35789;48.414;12.768;2023-07-08T09:30:00;7.5;;;3.8;;
49900;SDS011;35789;48.414;12.768;2023-07-08T09:35:04;7.5;;;3.8;;
49900;SDS011;35789;48.414;12.768;2023-07-08T09:40:04;7.5;;;3.8;;
49900;SDS011;35789;48.414;12.768;2023-07-08T09:45:03;6.7;;;3.6;;
49900;SDS011;35789;48.414;12.768;2023-07-08T09:50:00;6.7;;;3.6;;
49900;SDS011;35789;48.414;12.768;2023-07-08T09:55:00;6.7;;;3.6;;
49900;SDS011;35789;48.414;12.768;2023-07-08T10:00:06;6.7;;;3.6;;
49900;SDS011;35789;48.414;12.768;2023-07-08T10:05:03;6.7;;;3.6;;
49900;SDS011;35789;48.414;12.768;2023-07-08T10:10:06;6.7;;;3.6;;
49900;SDS011;35789;48.414;12.768;2023-07-08T10:15:05;9.4;;;3.9;;
49900;SDS011;35789;48.414;12.768;2023-07-08T10:20:00;9.4;;;3.9;;
49900;SDS011;35789;48.414;12.768;2023-07-08T10:25:09;9.4;;;3.9;;
49900;SDS011;35789;48.414;12.768;2023-07-08T10:30:11;9.4;;;3.9;;
49900;SDS011;35789;48.414;12.768;2023-07-08T10:35:08;9.4;;;3.9;;
49900;SDS011;35789;48.414;12.768;2023-07-08T10:40:11;9.4;;;3.9;;
49900;SDS011;35789;48.414;12.768;2023-07-08T10:45:08;6.3;;;3.7;;
49900;SDS011;35789;48.414;12.768;2023-07-08T10:50:16;6.3;;;3.7;;
49900;SDS011;35789;48.414;12.768;2023-07-08T10:55:14;6.3;;;3.7;;
49900;SDS011;35789;48.414;12.768;2023-07-08T11:00:09;6.3;;;3.7;;
49900;SDS011;35789;48.414;12.768;2023-07-08T11:05:09;6.3;;;3.7;;
49900;SDS011;35789;48.414;12.768;2023-07-08T11:10:02;6.3;;;3.7;;
49900;SDS011;35789;48.414;12.768;2023-07-08T11:15:05;7.3;;;4.3;;
49900;SDS011;35789;48.414;12.768;2023-07-08T11:20:07;7.3;;;4.3;;
49900;SDS011;35789;48.414;12.768;2023-07-08T11:25:01;7.3;;;4.3;;
49900;SDS011;35789;48.414;12.768;2023-07-08T11:30:04;7.3;;;4.3;;
49900;SDS011;35789;48.414;12.768;2023-07-08T11:35:02;7.3;;;4.3;;
49900;SDS011;35789;48.414;12.768;2023-07-08T11:40:07;7.3;;;4.3;;
49900;SDS011;35789;48.414;12.768;2023-07-08T11:45:00;6.8;;;4.0;;
49900;SDS011;35789;48.414;12.768;2023-07-08T11:50:01;6.8;;;4.0;;
49900;SDS011;35789;48.414;12.768;2023-07-08T11:55:03;6.8;;;4.0;;
49900;SDS011;35789;48.414;12.768;2023-07-08T12:00:13;6.8;;;4.0;;
49900;SDS011;35789;48.414;12.768;2023-07-08T12:05:04;6.8;;;4.0;;
49900;SDS011;35789;48.414;12.768;2023-07-08T12:10:10;6.8;;;4.0;;
49900;SDS011;35789;48.414;12.768;2023-07-08T12:15:08;8.4;;;4.8;;
49900;SDS011;35789;48.414;12.768;2023-07-08T12:20:02;8.4;;;4.8;;
49900;SDS011;35789;48.414;12.768;2023-07-08T12:25:00;8.4;;;4.8;;
49900;SDS011;35789;48.414;12.768;2023-07-08T12:30:00;8.4;;;4.8;;
49900;SDS011;35789;48.414;12.768;2023-07-08T12:35:00;8.4;;;4.8;;
49900;SDS011;35789;48.414;12.768;2023-07-08T12:40:00;8.4;;;4.8;;
49900;SDS011;35789;48.414;12.768;2023-07-08T12:45:00;8.1;;;5.5;;
49900;SDS011;35789;48.414;12.768;2023-07-08T12:50:00;8.1;;;5.5;;
49900;SDS011;35789;48.414;12.768;2023-07-08T12:55:00;8.1;;;5.5;;
49900;SDS011;35789;48.414;12.768;2023-07-08T13:00:01;8.1;;;5.5;;
49900;SDS011;35789;48.414;12.768;2023-07-08T13:05:01;8.1;;;5.5;;
49900;SDS011;35789;48.414;12.768;2023-07-08T13:10:00;8.1;;;5.5;;
49900;SDS011;35789;48.414;12.768;2023-07-08T13:15:00;7.1;;;5.2;;
49900;SDS011;35789;48.414;12.768;2023-07-08T13:20:00;7.1;;;5.2;;
49900;SDS011;35789;48.414;12.768;2023-07-08T13:25:02;7.1;;;5.2;;
49900;SDS011;35789;48.414;12.768;2023-07-08T13:30:15;7.1;;;5.2;;
49900;SDS011;35789;48.414;12.768;2023-07-08T13:35:00;7.1;;;5.2;;
49900;SDS011;35789;48.414;12.768;2023-07-08T13:40:00;7.1;;;5.2;;
49900;SDS011;35789;48.414;12.768;2023-07-08T13:45:00;7.0;;;4.1;;
49900;SDS011;35789;48.414;12.768;2023-07-08T13:50:04;7.0;;;4.1;;
49900;SDS011;35789;48.414;12.768;2023-07-08T13:55:02;7.0;;;4.1;;
49900;SDS011;35789;48.414;12.768;2023-07-08T14:00:00;7.0;;;4.1;;
49900;SDS011;35789;48.414;12.768;2023-07-08T14:05:01;7.0;;;4.1;;
49900;SDS011;35789;48.414;12.768;2023-07-08T14:10:00;7.0;;;4.1;;
49900;SDS011;35789;48.414;12.768;2023-07-08T14:15:00;7.4;;;4.3;;
49900;SDS011;35789;48.414;12.768;2023-07-08T14:20:00;7.4;;;4.3;;
49900;SDS011;35789;48.414;12.768;2023-07-08T14:25:05;7.4;;;4.3;;
49900;SDS011;35789;48.414;12.768;2023-07-08T14:30:00;7.4;;;4.3;;
49900;SDS011;35789;48.414;12.768;2023-07-08T14:35:12;7.4;;;4.3;;
49900;SDS011;35789;48.414;12.768;2023-07-08T14:40:01;7.4;;;4.3;;
49900;SDS011;35789;48.414;12.768;2023-07-08T14:45:00;7.0;;;4.1;;
49900;SDS011;35789;48.414;12.768;2023-07-08T14:50:06;7.0;;;4.1;;
49900;SDS011;35789;48.414;12.768;2023-07-08T14:55:00;7.0;;;4.1;;
49900;SDS011;35789;48.414;12.768;2023-07-08T15:00:00;7.0;;;4.1;;
49900;SDS011;35789;48.414;12.768;2023-07-08T15:05:00;7.0;;;4.1;;
49900;SDS011;35789;48.414;12.768;2023-07-08T15:10:00;7.0;;;4.1;;
49900;SDS011;35789;48.414;12.768;2023-07-08T15:15:00;7.8;;;4.0;;
49900;SDS011;35789;48.414;12.768;2023-07-08T15:20:08;7.8;;;4.0;;
49900;SDS011;35789;48.414;12.768;2023-07-08T15:25:01;7.8;;;4.0;;
49900;SDS011;35789;48.414;12.768;2023-07-08T15:30:00;7.8;;;4.0;;
49900;SDS011;35789;48.414;12.768;2023-07-08T15:35:12;7.8;;;4.0;;
49900;SDS011;35789;48.414;12.768;2023-07-08T15:40:01;7.8;;;4.0;;
49900;SDS011;35789;48.414;12.768;2023-07-08T15:45:01;7.9;;;3.8;;
49900;SDS011;35789;48.414;12.768;2023-07-08T15:50:07;7.9;;;3.8;;
49900;SDS011;35789;48.414;12.768;2023-07-08T15:55:00;7.9;;;3.8;;
49900;SDS011;35789;48.414;12.768;2023-07-08T16:00:00;7.9;;;3.8;;
49900;SDS011;35789;48.414;12.768;2023-07-08T16:05:00;7.9;;;3.8;;
49900;SDS011;35789;48.414;12.768;2023-07-08T16:10:00;7.9;;;3.8;;
49900;SDS011;35789;48.414;12.768;2023-07-08T16:15:00;6.6;;;3.8;;
49900;SDS011;35789;48.414;12.768;2023-07-08T16:20:00;6.6;;;3.8;;
49900;SDS011;35789;48.414;12.768;2023-07-08T16:25:00;6.6;;;3.8;;
49900;SDS011;35789;48.414;12.768;2023-07-08T16:30:00;6.6;;;3.8;;
49900;SDS011;35789;48.414;12.768;2023-07-08T16:35:00;6.6;;;3.8;;
49900;SDS011;35789;48.414;12.768;2023-07-08T16:40:00;6.6;;;3.8;;
49900;SDS011;35789;48.414;12.768;2023-07-08T16:45:00;6.6;;;4.0;;
49900;SDS011;35789;48.414;12.768;2023-07-08T16:50:00;6.6;;;4.0;;
49900;SDS011;35789;48.414;12.768;2023-07-08T16:55:00;6.6;;;4.0;;
49900;SDS011;35789;48.414;12.768;2023-07-08T17:00:00;6.6;;;4.0;;
49900;SDS011;35789;48.414;12.768;2023-07-08T17:05:00;6.6;;;4.0;;
49900;SDS011;35789;48.414;12.768;2023-07-08T17:10:00;6.6;;;4.0;;
49900;SDS011;35789;48.414;12.768;2023-07-08T17:15:00;7.3;;;4.0;;
49900;SDS011;35789;48.414;12.768;2023-07-08T17:20:13;7.3;;;4.0;;
49900;SDS011;35789;48.414;12.768;2023-07-08T17:25:00;7.3;;;4.0;;
49900;SDS011;35789;48.414;12.768;2023-07-08T17:30:00;7.3;;;4.0;;
49900;SDS011;35789;48.414;12.768;2023-07-08T17:35:00;7.3;;;4.0;;
49900;SDS011;35789;48.414;12.768;2023-07-08T17:40:00;7.3;;;4.0;;
49900;SDS011;35789;48.414;12.768;2023-07-08T17:45:00;6.9;;;4.1;;
49900;SDS011;35789;48.414;12.768;2023-07-08T17:50:00;6.9;;;4.1;;
49900;SDS011;35789;48.414;12.768;2023-07-08T17:55:00;6.9;;;4.1;;
49900;SDS011;35789;48.414;12.768;2023-07-08T18:00:00;6.9;;;4.1;;
49900;SDS011;35789;48.414;12.768;2023-07-08T18:05:00;6.9;;;4.1;;
49900;SDS011;35789;48.414;12.768;2023-07-08T18:10:00;6.9;;;4.1;;
49900;SDS011;35789;48.414;12.768;2023-07-08T18:15:00;9.6;;;4.1;;
49900;SDS011;35789;48.414;12.768;2023-07-08T18:20:00;9.6;;;4.1;;
49900;SDS011;35789;48.414;12.768;2023-07-08T18:25:00;9.6;;;4.1;;
49900;SDS011;35789;48.414;12.768;2023-07-08T18:30:00;9.6;;;4.1;;
49900;SDS011;35789;48.414;12.768;2023-07-08T18:35:00;9.6;;;4.1;;
49900;SDS011;35789;48.414;12.768;2023-07-08T18:40:00;9.6;;;4.1;;
49900;SDS011;35789;48.414;12.768;2023-07-08T18:45:00;8.4;;;4.1;;
49900;SDS011;35789;48.414;12.768;2023-07-08T18:50:01;8.4;;;4.1;;
49900;SDS011;35789;48.414;12.768;2023-07-08T18:55:00;8.4;;;4.1;;
49900;SDS011;35789;48.414;12.768;2023-07-08T19:00:00;8.4;;;4.1;;
49900;SDS011;35789;48.414;12.768;2023-07-08T19:05:00;8.4;;;4.1;;
49900;SDS011;35789;48.414;12.768;2023-07-08T19:10:00;8.4;;;4.1;;
49900;SDS011;35789;48.414;12.768;2023-07-08T19:15:00;9.1;;;4.0;;
49900;SDS011;35789;48.414;12.768;2023-07-08T19:20:00;9.1;;;4.0;;
49900;SDS011;35789;48.414;12.768;2023-07-08T19:25:00;9.1;;;4.0;;
49900;SDS011;35789;48.414;12.768;2023-07-08T19:30:00;9.1;;;4.0;;
49900;SDS011;35789;48.414;12.768;2023-07-08T19:35:00;9.1;;;4.0;;
49900;SDS011;35789;48.414;12.768;2023-07-08T19:40:00;9.1;;;4.0;;
49900;SDS011;35789;48.414;12.768;2023-07-08T19:45:00;7.6;;;4.0;;
49900;SDS011;35789;48.414;12.768;2023-07-08T19:50:00;7.6;;;4.0;;
49900;SDS011;35789;48.414;12.768;2023-07-08T19:55:01;7.6;;;4.0;;
49900;SDS011;35789;48.414;12.768;2023-07-08T20:00:00;7.6;;;4.0;;
49900;SDS011;35789;48.414;12.768;2023-07-08T20:05:00;7.6;;;4.0;;
49900;SDS011;35789;48.414;12.768;2023-07-08T20:10:00;7.6;;;4.0;;
49900;SDS011;35789;48.414;12.768;2023-07-08T20:15:00;8.3;;;4.3;;
49900;SDS011;35789;48.414;12.768;2023-07-08T20:20:00;8.3;;;4.3;;
49900;SDS011;35789;48.414;12.768;2023-07-08T20:25:00;8.3;;;4.3;;
49900;SDS011;35789;48.414;12.768;2023-07-08T20:30:00;8.3;;;4.3;;
49900;SDS011;35789;48.414;12.768;2023-07-08T20:35:00;8.3;;;4.3;;
49900;SDS011;35789;48.414;12.768;2023-07-08T20:40:00;8.3;;;4.3;;
49900;SDS011;35789;48.414;12.768;2023-07-08T20:45:00;7.4;;;4.0;;
49900;SDS011;35789;48.414;12.768;2023-07-08T20:50:00;7.4;;;4.0;;
49900;SDS011;35789;48.414;12.768;2023-07-08T20:55:00;7.4;;;4.0;;
49900;SDS011;35789;48.414;12.768;2023-07-08T21:00:00;7.4;;;4.0;;
49900;SDS011;35789;48.414;12.768;2023-07-08T21:05:00;7.4;;;4.0;;
49900;SDS011;35789;48.414;12.768;2023-07-08T21:10:00;7.4;;;4.0;;
49900;SDS011;35789;48.414;12.768;2023-07-08T21:15:00;10.0;;;4.6;;
49900;SDS011;35789;48.414;12.768;2023-07-08T21:20:00;10.0;;;4.6;;
49900;SDS011;35789;48.414;12.768;2023-07-08T21:25:00;10.0;;;4.6;;
49900;SDS011;35789;48.414;12.768;2023-07-08T21:30:00;10.0;;;4.6;;
49900;SDS011;35789;48.414;12.768;2023-07-08T21:35:00;10.0;;;4.6;;
49900;SDS011;35789;48.414;12.768;2023-07-08T21:40:00;10.0;;;4.6;;
49900;SDS011;35789;48.414;12.768;2023-07-08T21:45:00;7.6;;;4.3;;
49900;SDS011;35789;48.414;12.768;2023-07-08T21:50:00;7.6;;;4.3;;
49900;SDS011;35789;48.414;12.768;2023-07-08T21:55:00;7.6;;;4.3;;
49900;SDS011;35789;48.414;12.768;2023-07-08T22:00:00;7.6;;;4.3;;
49900;SDS011;35789;48.414;12.768;2023-07-08T22:05:00;7.6;;;4.3;;
49900;SDS011;35789;48.414;12.768;2023-07-08T22:10:00;7.6;;;4.3;;
49900;SDS011;35789;48.414;12.768;2023-07-08T22:15:00;7.6;;;4.0;;
49900;SDS011;35789;48.414;12.768;2023-07-08T22:20:00;7.6;;;4.0;;
49900;SDS011;35789;48.414;12.768;2023-07-08T22:25:00;7.6;;;4.0;;
49900;SDS011;35789;48.414;12.768;2023-07-08T22:30:00;7.6;;;4.0;;
49900;SDS011;35789;48.414;12.768;2023-07-08T22:35:00;7.6;;;4.0;;
49900;SDS011;35789;48.414;12.768;2023-07-08T22:40:00;7.6;;;4.0;;
49900;SDS011;35789;48.414;12.768;2023-07-08T22:45:00;8.4;;;4.5;;
49900;SDS011;35789;48.414;12.768;2023-07-08T22:50:00;8.4;;;4.5;;
49900;SDS011;35789;48.414;12.768;2023-07-08T22:55:03;8.4;;;4.5;;
49900;SDS011;35789;48.414;12.768;2023-07-08T23:00:00;8.4;;;4.5;;
49900;SDS011;35789;48.414;12.768;2023-07-08T23:05:00;8.4;;;4.5;;
49900;SDS011;35789;48.414;12.768;2023-07-08T23:10:00;8.4;;;4.5;;
49900;SDS011;35789;48.414;12.768;2023-07-08T23:15:00;8.2;;;4.1;;
49900;SDS011;35789;48.414;12.768;2023-07-08T23:20:00;8.2;;;4.1;;
49900;SDS011;35789;48.414;12.768;2023-07-08T23:25:00;8.2;;;4.1;;
49900;SDS011;35789;48.414;12.768;2023-07-08T23:30:00;8.2;;;4.1;;
49900;SDS011;35789;48.414;12.768;2023-07-08T23:35:00;8.2;;;4.1;;
49900;SDS011;35789;48.414;12.768;2023-07-08T23:40:00;8.2;;;4.1;;
49900;SDS011;35789;48.414;12.768;2023-07-08T23:45:00;8.9;;;4.3;;
49900;SDS011;35789;48.414;12.768;2023-07-08T23:50:00;8.9;;;4.3;;
49900;SDS011;35789;48.414;12.768;2023-07-08T23:55:00;8.9;;;4.3;;
